Time;durP1;ratioP1;P1;durP2;ratioP2;P2;SDS_P1;SDS_P2;PMS_P1;PMS_P2;Temp;Humidity;BMP_temperature;BMP_pressure;BME280_temperature;BME280_humidity;BME280_pressure;Samples;Min_cycle;Max_cycle;Signal;HPM_P1;HPM_P2
2024/04/13 00:02:22;;;;;;;8.35;5.00;;;;;;;;;;5541727;25;20038;-61
2024/04/13 00:04:49;;;;;;;9.35;5.32;;;;;;;;;;5529322;25;20326;-60
2024/04/13 00:07:24;;;;;;;8.93;5.10;;;;;;;;;;5546985;25;20033;-60
2024/04/13 00:09:50;;;;;;;8.25;5.10;;;;;;;;;;5545436;25;20369;-62
2024/04/13 00:12:19;;;;;;;9.45;5.10;;;;;;;;;;5534142;25;20036;-61
2024/04/13 00:14:45;;;;;;;7.47;4.88;;;;;;;;;;5530589;25;20017;-60
2024/04/13 00:17:14;;;;;;;7.45;4.88;;;;;;;;;;5541345;25;20387;-60
2024/04/13 00:19:40;;;;;;;9.00;5.30;;;;;;;;;;5534116;25;20045;-61
2024/04/13 00:22:11;;;;;;;8.88;4.85;;;;;;;;;;5532139;25;20044;-61
2024/04/13 00:24:41;;;;;;;7.78;4.70;;;;;;;;;;5536394;25;20505;-61
2024/04/13 00:27:09;;;;;;;9.60;4.90;;;;;;;;;;5532169;25;20025;-61
2024/04/13 00:29:37;;;;;;;7.88;5.00;;;;;;;;;;5531750;25;20008;-61
2024/04/13 00:32:06;;;;;;;8.10;4.97;;;;;;;;;;5532980;25;20034;-61
2024/04/13 00:34:33;;;;;;;9.10;5.50;;;;;;;;;;5533931;25;20202;-65
2024/04/13 00:37:03;;;;;;;7.47;5.45;;;;;;;;;;5536070;25;20029;-61
2024/04/13 00:39:29;;;;;;;8.50;5.45;;;;;;;;;;5543852;25;20034;-61
2024/04/13 00:42:01;;;;;;;7.85;5.38;;;;;;;;;;5534047;25;20487;-61
2024/04/13 00:44:27;;;;;;;6.68;4.88;;;;;;;;;;5535399;25;20369;-60
2024/04/13 00:47:05;;;;;;;9.55;5.63;;;;;;;;;;5529630;25;20020;-60
2024/04/13 00:49:31;;;;;;;8.20;5.57;;;;;;;;;;5536175;25;20033;-60
2024/04/13 00:52:00;;;;;;;7.53;5.25;;;;;;;;;;5530419;25;20034;-61
2024/04/13 00:54:27;;;;;;;9.15;5.75;;;;;;;;;;5530370;25;20036;-61
2024/04/13 00:56:56;;;;;;;8.65;5.75;;;;;;;;;;5528231;25;20033;-61
2024/04/13 00:59:25;;;;;;;7.70;5.32;;;;;;;;;;5544127;25;20021;-61
2024/04/13 01:01:56;;;;;;;10.83;5.70;;;;;;;;;;5559694;25;20027;-61
2024/04/13 01:04:22;;;;;;;11.38;6.13;;;;;;;;;;5578196;25;20387;-61
2024/04/13 01:06:51;;;;;;;8.90;5.85;;;;;;;;;;5570745;25;20028;-61
2024/04/13 01:09:20;;;;;;;8.75;5.88;;;;;;;;;;5573723;25;20024;-61
2024/04/13 01:11:48;;;;;;;9.88;6.65;;;;;;;;;;5569131;25;20040;-61
2024/04/13 01:14:15;;;;;;;10.02;5.82;;;;;;;;;;5568854;25;20028;-61
2024/04/13 01:16:46;;;;;;;7.80;6.15;;;;;;;;;;5571312;25;20025;-61
2024/04/13 01:19:12;;;;;;;11.15;6.40;;;;;;;;;;5568250;25;20028;-61
2024/04/13 01:21:43;;;;;;;10.57;6.30;;;;;;;;;;5570625;25;20032;-60
2024/04/13 01:24:12;;;;;;;11.23;6.82;;;;;;;;;;5580426;25;20374;-60
2024/04/13 01:26:41;;;;;;;9.38;6.10;;;;;;;;;;5564151;25;20028;-60
2024/04/13 01:29:07;;;;;;;9.70;6.70;;;;;;;;;;5583400;25;20394;-60
2024/04/13 01:31:37;;;;;;;8.95;6.10;;;;;;;;;;5571355;25;20559;-61
2024/04/13 01:34:04;;;;;;;9.50;6.45;;;;;;;;;;5571967;25;20025;-60
2024/04/13 01:36:37;;;;;;;11.10;6.10;;;;;;;;;;5583837;25;20023;-65
2024/04/13 01:39:05;;;;;;;10.18;6.63;;;;;;;;;;5570093;25;20063;-64
2024/04/13 01:41:42;;;;;;;12.43;6.88;;;;;;;;;;5574830;25;20033;-60
2024/04/13 01:44:10;;;;;;;10.05;6.60;;;;;;;;;;5574197;25;20024;-60
2024/04/13 01:46:38;;;;;;;10.63;6.20;;;;;;;;;;5586974;25;20036;-60
2024/04/13 01:49:05;;;;;;;9.20;6.68;;;;;;;;;;5569744;25;20052;-60
2024/04/13 01:51:34;;;;;;;10.70;6.85;;;;;;;;;;5568203;25;20469;-61
2024/04/13 01:54:00;;;;;;;10.25;6.47;;;;;;;;;;5570313;25;20035;-60
2024/04/13 01:56:30;;;;;;;10.82;6.60;;;;;;;;;;5562131;25;20397;-61
2024/04/13 01:58:58;;;;;;;7.95;5.93;;;;;;;;;;5572714;25;20036;-60
2024/04/13 02:01:27;;;;;;;9.48;6.75;;;;;;;;;;5584555;25;20021;-60
2024/04/13 02:03:55;;;;;;;7.53;5.90;;;;;;;;;;5572075;25;20011;-60
2024/04/13 02:06:24;;;;;;;7.90;6.10;;;;;;;;;;5574646;25;20024;-60
2024/04/13 02:08:50;;;;;;;12.97;6.67;;;;;;;;;;5575304;25;20024;-60
2024/04/13 02:11:19;;;;;;;10.40;6.95;;;;;;;;;;5566329;25;20927;-60
2024/04/13 02:13:45;;;;;;;9.33;6.20;;;;;;;;;;5571879;25;20478;-60
2024/04/13 02:16:17;;;;;;;7.90;6.20;;;;;;;;;;5567365;25;20365;-60
2024/04/13 02:18:43;;;;;;;9.32;5.93;;;;;;;;;;5573830;25;20470;-59
2024/04/13 02:21:12;;;;;;;9.63;6.63;;;;;;;;;;5572713;25;20047;-60
2024/04/13 02:23:38;;;;;;;10.48;6.72;;;;;;;;;;5572267;25;20040;-60
2024/04/13 02:26:09;;;;;;;11.45;6.50;;;;;;;;;;5569391;25;20028;-60
2024/04/13 02:28:35;;;;;;;9.40;5.93;;;;;;;;;;5566138;25;20035;-60
2024/04/13 02:31:04;;;;;;;12.20;6.38;;;;;;;;;;5586416;25;20024;-60
2024/04/13 02:33:33;;;;;;;9.80;6.03;;;;;;;;;;5569677;25;20024;-61
2024/04/13 02:36:02;;;;;;;9.65;6.18;;;;;;;;;;5583490;25;20020;-60
2024/04/13 02:38:28;;;;;;;9.40;5.70;;;;;;;;;;5566160;25;20033;-61
2024/04/13 02:40:58;;;;;;;10.77;6.30;;;;;;;;;;5566833;25;20029;-60
2024/04/13 02:43:24;;;;;;;;;;;;;;;;;;5582335;25;20040;-60
2024/04/13 02:45:52;;;;;;;10.77;5.78;;;;;;;;;;5575669;25;19923;-60
2024/04/13 02:48:19;;;;;;;11.50;6.57;;;;;;;;;;5569524;25;20032;-60
2024/04/13 02:50:51;;;;;;;10.63;6.22;;;;;;;;;;5575786;25;20024;-60
2024/04/13 02:53:17;;;;;;;10.68;6.10;;;;;;;;;;5569155;25;20036;-60
2024/04/13 02:55:46;;;;;;;12.57;5.93;;;;;;;;;;5568085;25;20029;-60
2024/04/13 02:58:13;;;;;;;9.98;5.90;;;;;;;;;;5572785;25;20031;-60
2024/04/13 03:00:41;;;;;;;9.48;5.97;;;;;;;;;;5573109;25;20025;-60
2024/04/13 03:03:07;;;;;;;8.97;6.13;;;;;;;;;;5566457;25;20473;-60
2024/04/13 03:05:37;;;;;;;8.82;5.65;;;;;;;;;;5575598;25;20399;-60
2024/04/13 03:08:06;;;;;;;10.00;6.13;;;;;;;;;;5566159;25;20323;-59
2024/04/13 03:10:35;;;;;;;10.90;5.97;;;;;;;;;;5573158;25;20032;-60
2024/04/13 03:13:01;;;;;;;11.10;5.90;;;;;;;;;;5587636;25;20036;-59
2024/04/13 03:15:30;;;;;;;7.55;6.03;;;;;;;;;;5576932;25;20048;-60
2024/04/13 03:17:56;;;;;;;9.05;5.80;;;;;;;;;;5570821;25;20021;-60
2024/04/13 03:20:25;;;;;;;8.65;6.10;;;;;;;;;;5574263;25;20024;-60
2024/04/13 03:22:51;;;;;;;10.35;6.20;;;;;;;;;;5571689;25;20048;-60
2024/04/13 03:25:23;;;;;;;11.13;6.05;;;;;;;;;;5570880;25;20036;-60
2024/04/13 03:27:49;;;;;;;8.68;6.03;;;;;;;;;;5568832;25;20355;-60
2024/04/13 03:30:18;;;;;;;9.07;5.90;;;;;;;;;;5567057;25;20036;-60
2024/04/13 03:32:44;;;;;;;11.57;6.20;;;;;;;;;;5565925;25;20020;-61
2024/04/13 03:35:13;;;;;;;9.52;6.05;;;;;;;;;;5575264;25;20032;-61
2024/04/13 03:37:39;;;;;;;9.18;6.30;;;;;;;;;;5575591;25;20474;-60
2024/04/13 03:40:13;;;;;;;11.60;6.30;;;;;;;;;;5581853;25;20032;-60
2024/04/13 03:42:47;;;;;;;7.60;6.18;;;;;;;;;;5569761;25;20028;-61
2024/04/13 03:45:16;;;;;;;10.55;6.35;;;;;;;;;;5567182;25;20029;-60
2024/04/13 03:47:45;;;;;;;12.83;6.70;;;;;;;;;;5582209;25;20028;-60
2024/04/13 03:50:13;;;;;;;10.30;6.22;;;;;;;;;;5572366;25;20040;-61
2024/04/13 03:52:43;;;;;;;9.00;6.60;;;;;;;;;;5571491;25;20037;-60
2024/04/13 03:55:09;;;;;;;9.82;5.78;;;;;;;;;;5567076;25;20021;-60
2024/04/13 03:57:37;;;;;;;8.85;6.53;;;;;;;;;;5565984;25;20405;-60
2024/04/13 04:00:08;;;;;;;10.50;6.50;;;;;;;;;;5570740;25;20036;-60
2024/04/13 04:02:37;;;;;;;8.43;6.43;;;;;;;;;;5574737;25;20039;-60
2024/04/13 04:05:06;;;;;;;11.10;6.20;;;;;;;;;;5599323;25;20032;-60
2024/04/13 04:07:32;;;;;;;8.00;6.25;;;;;;;;;;5574903;25;20047;-61
2024/04/13 04:10:01;;;;;;;13.57;6.60;;;;;;;;;;5570350;25;20001;-60
2024/04/13 04:12:27;;;;;;;8.60;6.78;;;;;;;;;;5565693;25;20025;-60
2024/04/13 04:14:56;;;;;;;9.93;6.45;;;;;;;;;;5576323;25;20431;-60
2024/04/13 04:17:25;;;;;;;10.93;6.40;;;;;;;;;;5568245;25;20556;-61
2024/04/13 04:19:54;;;;;;;11.00;6.47;;;;;;;;;;5575448;25;20032;-60
2024/04/13 04:22:20;;;;;;;9.70;6.43;;;;;;;;;;5572445;25;20373;-60
2024/04/13 04:24:50;;;;;;;9.98;7.00;;;;;;;;;;5575387;25;20405;-60
2024/04/13 04:27:18;;;;;;;10.05;7.00;;;;;;;;;;5568099;25;20032;-60
2024/04/13 04:29:46;;;;;;;10.07;6.30;;;;;;;;;;5576713;25;20032;-60
2024/04/13 04:32:12;;;;;;;9.13;6.43;;;;;;;;;;5566467;25;20028;-60
2024/04/13 04:34:44;;;;;;;9.13;5.95;;;;;;;;;;5569763;25;20377;-60
2024/04/13 04:37:10;;;;;;;7.85;5.78;;;;;;;;;;5568206;25;20040;-61
2024/04/13 04:39:39;;;;;;;12.82;6.63;;;;;;;;;;5581928;25;20044;-61
2024/04/13 04:42:06;;;;;;;8.23;6.37;;;;;;;;;;5568603;25;20380;-60
2024/04/13 04:44:36;;;;;;;10.30;6.32;;;;;;;;;;5576429;25;20394;-60
2024/04/13 04:47:02;;;;;;;8.30;6.43;;;;;;;;;;5566778;25;20029;-60
2024/04/13 04:49:31;;;;;;;9.32;6.60;;;;;;;;;;5572285;25;20036;-60
2024/04/13 04:52:00;;;;;;;12.60;7.05;;;;;;;;;;5564347;25;20044;-60
2024/04/13 04:54:28;;;;;;;7.80;6.37;;;;;;;;;;5571734;25;20027;-60
2024/04/13 04:56:55;;;;;;;8.97;6.73;;;;;;;;;;5566235;25;20376;-60
2024/04/13 04:59:23;;;;;;;9.40;6.55;;;;;;;;;;5573210;25;20044;-60
2024/04/13 05:01:49;;;;;;;11.73;7.25;;;;;;;;;;5576792;25;20036;-61
2024/04/13 05:04:19;;;;;;;10.98;6.93;;;;;;;;;;5568791;25;20036;-60
2024/04/13 05:06:45;;;;;;;10.20;7.38;;;;;;;;;;5571568;25;20033;-60
2024/04/13 05:09:17;;;;;;;8.98;6.68;;;;;;;;;;5574720;25;20033;-60
2024/04/13 05:11:43;;;;;;;8.65;6.53;;;;;;;;;;5566834;25;20050;-60
2024/04/13 05:14:12;;;;;;;10.70;6.38;;;;;;;;;;5574492;25;20366;-60
2024/04/13 05:16:38;;;;;;;11.65;6.45;;;;;;;;;;5563401;25;20033;-60
2024/04/13 05:19:07;;;;;;;9.20;6.50;;;;;;;;;;5576036;25;20028;-60
2024/04/13 05:21:33;;;;;;;10.83;6.30;;;;;;;;;;5576833;25;20136;-60
2024/04/13 05:24:02;;;;;;;10.88;7.07;;;;;;;;;;5573319;25;20485;-60
2024/04/13 05:26:31;;;;;;;8.40;6.40;;;;;;;;;;5574497;25;20021;-60
2024/04/13 05:29:01;;;;;;;9.23;6.75;;;;;;;;;;5573064;25;20509;-60
2024/04/13 05:31:27;;;;;;;11.13;6.70;;;;;;;;;;5579082;25;20028;-61
2024/04/13 05:33:56;;;;;;;9.88;6.38;;;;;;;;;;5562722;25;20443;-60
2024/04/13 05:36:22;;;;;;;8.73;6.30;;;;;;;;;;5563412;25;20375;-60
2024/04/13 05:38:51;;;;;;;9.60;6.97;;;;;;;;;;5562433;25;20032;-60
2024/04/13 05:41:17;;;;;;;10.95;6.47;;;;;;;;;;5563131;25;20024;-60
2024/04/13 05:43:48;;;;;;;9.93;6.43;;;;;;;;;;5583035;25;20032;-60
2024/04/13 05:46:14;;;;;;;9.02;6.20;;;;;;;;;;5579085;25;20033;-60
2024/04/13 05:48:43;;;;;;;9.52;5.90;;;;;;;;;;5569847;25;20026;-60
2024/04/13 05:51:09;;;;;;;9.47;5.87;;;;;;;;;;5578515;25;20024;-61
2024/04/13 05:53:38;;;;;;;7.82;5.32;;;;;;;;;;5579747;25;20401;-61
2024/04/13 05:56:05;;;;;;;10.05;5.95;;;;;;;;;;5581458;25;20029;-60
2024/04/13 05:58:35;;;;;;;9.07;5.50;;;;;;;;;;5578460;25;20116;-60
2024/04/13 06:01:04;;;;;;;8.23;5.32;;;;;;;;;;5581128;25;20466;-60
2024/04/13 06:03:33;;;;;;;8.18;5.68;;;;;;;;;;5583270;25;20043;-60
2024/04/13 06:05:59;;;;;;;9.98;5.75;;;;;;;;;;5578536;25;20374;-60
2024/04/13 06:08:28;;;;;;;10.88;5.28;;;;;;;;;;5580942;25;20060;-60
2024/04/13 06:10:54;;;;;;;7.30;5.17;;;;;;;;;;5577513;25;20029;-60
2024/04/13 06:13:23;;;;;;;7.47;5.15;;;;;;;;;;5583715;25;20930;-60
2024/04/13 06:15:49;;;;;;;7.10;5.25;;;;;;;;;;5566678;25;20032;-60
2024/04/13 06:18:20;;;;;;;7.40;5.18;;;;;;;;;;5561760;25;20045;-60
2024/04/13 06:20:47;;;;;;;6.78;4.50;;;;;;;;;;5562534;25;20024;-60
2024/04/13 06:23:17;;;;;;;8.30;4.80;;;;;;;;;;5569965;25;20371;-60
2024/04/13 06:25:45;;;;;;;9.13;5.25;;;;;;;;;;5585147;25;20024;-60
2024/04/13 06:28:14;;;;;;;8.93;5.40;;;;;;;;;;5565344;25;20024;-60
2024/04/13 06:30:42;;;;;;;6.38;4.88;;;;;;;;;;5562132;25;20028;-61
2024/04/13 06:33:11;;;;;;;7.22;4.72;;;;;;;;;;5563115;25;20025;-60
2024/04/13 06:35:39;;;;;;;8.35;5.10;;;;;;;;;;5570772;25;20019;-60
2024/04/13 06:38:08;;;;;;;7.03;5.00;;;;;;;;;;5599114;25;20036;-60
2024/04/13 06:40:35;;;;;;;9.55;4.75;;;;;;;;;;5569115;25;20028;-60
2024/04/13 06:43:03;;;;;;;6.50;4.63;;;;;;;;;;5573049;25;20121;-61
2024/04/13 06:45:30;;;;;;;8.25;5.07;;;;;;;;;;5562284;25;20029;-60
2024/04/13 06:47:58;;;;;;;7.55;4.50;;;;;;;;;;5567941;25;20033;-60
2024/04/13 06:50:25;;;;;;;9.55;4.68;;;;;;;;;;5570271;25;20020;-60
2024/04/13 06:52:56;;;;;;;7.20;4.35;;;;;;;;;;5586812;25;20023;-60
2024/04/13 06:55:22;;;;;;;8.02;4.20;;;;;;;;;;5561593;25;20182;-60
2024/04/13 06:57:51;;;;;;;7.80;4.40;;;;;;;;;;5566618;25;20037;-60
2024/04/13 07:00:17;;;;;;;7.32;4.18;;;;;;;;;;5583943;25;20093;-61
2024/04/13 07:02:47;;;;;;;8.25;4.28;;;;;;;;;;5580223;25;20029;-60
2024/04/13 07:05:13;;;;;;;7.15;4.60;;;;;;;;;;5578201;25;20024;-60
2024/04/13 07:07:42;;;;;;;6.95;3.90;;;;;;;;;;5567525;25;20159;-60
2024/04/13 07:10:10;;;;;;;6.07;4.18;;;;;;;;;;5583267;25;20033;-60
2024/04/13 07:12:39;;;;;;;6.65;3.88;;;;;;;;;;5570673;25;20024;-61
2024/04/13 07:15:06;;;;;;;7.63;4.80;;;;;;;;;;5565075;25;20475;-61
2024/04/13 07:17:34;;;;;;;4.97;3.67;;;;;;;;;;5571472;25;20037;-60
2024/04/13 07:20:04;;;;;;;8.40;4.32;;;;;;;;;;5561637;25;20028;-60
2024/04/13 07:22:33;;;;;;;6.68;4.63;;;;;;;;;;5564543;25;20541;-61
2024/04/13 07:24:59;;;;;;;6.18;4.03;;;;;;;;;;5579297;25;20029;-60
2024/04/13 07:27:31;;;;;;;7.03;3.92;;;;;;;;;;5565248;25;20410;-61
2024/04/13 07:29:57;;;;;;;6.07;4.00;;;;;;;;;;5579272;25;20033;-60
2024/04/13 07:32:25;;;;;;;7.88;4.40;;;;;;;;;;5563336;25;20031;-60
2024/04/13 07:34:52;;;;;;;4.70;3.72;;;;;;;;;;5581025;25;20032;-60
2024/04/13 07:37:21;;;;;;;6.18;3.92;;;;;;;;;;5579560;25;20036;-60
2024/04/13 07:39:48;;;;;;;8.15;3.70;;;;;;;;;;5578313;25;20028;-61
2024/04/13 07:42:16;;;;;;;7.15;3.30;;;;;;;;;;5588385;25;20028;-61
2024/04/13 07:44:45;;;;;;;6.57;3.67;;;;;;;;;;5564809;25;20037;-60
2024/04/13 07:47:14;;;;;;;7.53;3.60;;;;;;;;;;5578073;25;20525;-60
2024/04/13 07:49:40;;;;;;;5.97;3.33;;;;;;;;;;5602660;25;20020;-61
2024/04/13 07:52:09;;;;;;;7.55;3.45;;;;;;;;;;5592909;25;20028;-61
2024/04/13 07:54:35;;;;;;;5.35;3.13;;;;;;;;;;5567635;25;20033;-61
2024/04/13 07:57:04;;;;;;;4.97;3.38;;;;;;;;;;5576465;25;20037;-60
2024/04/13 07:59:30;;;;;;;5.78;3.40;;;;;;;;;;5564898;25;20046;-61
2024/04/13 08:02:01;;;;;;;5.57;3.00;;;;;;;;;;5584248;25;20036;-61
2024/04/13 08:04:28;;;;;;;5.55;2.95;;;;;;;;;;5577231;25;20045;-61
2024/04/13 08:06:56;;;;;;;4.22;2.95;;;;;;;;;;5573745;25;20021;-61
2024/04/13 08:09:23;;;;;;;6.80;3.38;;;;;;;;;;5571618;25;20386;-61
2024/04/13 08:11:51;;;;;;;4.72;2.55;;;;;;;;;;5574850;25;20776;-61
2024/04/13 08:14:18;;;;;;;5.10;2.90;;;;;;;;;;5582633;25;20024;-61
2024/04/13 08:16:47;;;;;;;5.40;2.83;;;;;;;;;;5563861;25;20021;-61
2024/04/13 08:19:17;;;;;;;4.80;2.80;;;;;;;;;;5566072;25;20040;-62
2024/04/13 08:21:45;;;;;;;6.38;2.92;;;;;;;;;;5581721;25;20041;-62
2024/04/13 08:24:12;;;;;;;5.40;2.90;;;;;;;;;;5577691;25;20032;-62
2024/04/13 08:26:40;;;;;;;6.78;3.20;;;;;;;;;;5578634;25;20032;-62
2024/04/13 08:29:07;;;;;;;12.23;3.08;;;;;;;;;;5586964;25;20106;-62
2024/04/13 08:31:35;;;;;;;4.93;2.70;;;;;;;;;;5588986;25;20020;-61
2024/04/13 08:34:02;;;;;;;6.78;3.35;;;;;;;;;;5597334;25;20028;-61
2024/04/13 08:36:34;;;;;;;5.50;2.42;;;;;;;;;;5570830;25;20032;-62
2024/04/13 08:39:00;;;;;;;7.15;2.80;;;;;;;;;;5566891;25;20028;-62
2024/04/13 08:41:38;;;;;;;5.80;2.63;;;;;;;;;;5587375;25;20396;-62
2024/04/13 08:44:04;;;;;;;5.82;2.90;;;;;;;;;;5568221;25;20048;-61
2024/04/13 08:46:33;;;;;;;5.22;2.80;;;;;;;;;;5583101;25;20035;-62
2024/04/13 08:49:00;;;;;;;8.05;2.70;;;;;;;;;;5579327;25;20041;-61
2024/04/13 08:51:29;;;;;;;6.13;2.63;;;;;;;;;;5577235;25;20108;-62
2024/04/13 08:53:58;;;;;;;4.65;2.60;;;;;;;;;;5566995;25;20024;-59
2024/04/13 08:56:27;;;;;;;4.75;2.75;;;;;;;;;;5568207;25;20478;-61
2024/04/13 08:58:55;;;;;;;4.95;2.70;;;;;;;;;;5582662;25;20401;-59
2024/04/13 09:01:25;;;;;;;6.13;2.88;;;;;;;;;;5571776;25;20463;-59
2024/04/13 09:03:51;;;;;;;5.80;2.63;;;;;;;;;;5533133;25;20033;-60
2024/04/13 09:06:20;;;;;;;5.60;2.70;;;;;;;;;;5536065;25;20373;-59
2024/04/13 09:08:47;;;;;;;5.38;2.67;;;;;;;;;;5535140;25;20037;-59
2024/04/13 09:11:22;;;;;;;5.68;2.38;;;;;;;;;;5534801;25;20029;-59
2024/04/13 09:13:49;;;;;;;4.47;2.60;;;;;;;;;;5526159;25;20030;-60
2024/04/13 09:16:19;;;;;;;5.25;2.40;;;;;;;;;;5541610;25;20023;-60
2024/04/13 09:18:45;;;;;;;5.32;2.60;;;;;;;;;;5525825;25;20037;-60
2024/04/13 09:21:15;;;;;;;5.13;2.78;;;;;;;;;;5526420;26;20025;-58
2024/04/13 09:23:41;;;;;;;5.07;2.47;;;;;;;;;;5535982;25;20372;-60
2024/04/13 09:26:10;;;;;;;5.88;2.20;;;;;;;;;;5553126;25;20367;-60
2024/04/13 09:28:36;;;;;;;;;;;;;;;;;;5531040;25;20025;-59
2024/04/13 09:31:07;;;;;;;5.40;2.10;;;;;;;;;;5534316;25;20373;-59
2024/04/13 09:33:34;;;;;;;4.85;2.40;;;;;;;;;;5539684;25;20042;-59
2024/04/13 09:36:03;;;;;;;4.65;2.40;;;;;;;;;;5536508;25;20040;-59
2024/04/13 09:38:29;;;;;;;4.22;2.38;;;;;;;;;;5531643;25;20029;-59
2024/04/13 09:41:00;;;;;;;6.50;2.45;;;;;;;;;;5561159;25;20029;-58
2024/04/13 09:43:27;;;;;;;5.53;2.30;;;;;;;;;;5548693;25;20335;-58
2024/04/13 09:45:59;;;;;;;4.13;2.00;;;;;;;;;;5544903;25;20040;-59
2024/04/13 09:48:28;;;;;;;4.68;1.90;;;;;;;;;;5540319;25;20508;-59
2024/04/13 09:50:57;;;;;;;4.45;2.20;;;;;;;;;;5533182;25;20036;-60
2024/04/13 09:53:24;;;;;;;4.97;2.20;;;;;;;;;;5534092;25;20478;-59
2024/04/13 09:55:53;;;;;;;5.18;2.30;;;;;;;;;;5546310;25;20024;-63
2024/04/13 09:58:19;;;;;;;5.05;2.40;;;;;;;;;;5557853;25;20036;-58
2024/04/13 10:00:49;;;;;;;4.50;2.10;;;;;;;;;;5557600;25;20032;-59
2024/04/13 10:03:16;;;;;;;6.93;2.38;;;;;;;;;;5574134;25;20020;-59
2024/04/13 10:05:48;;;;;;;5.35;2.65;;;;;;;;;;5583960;25;20024;-59
2024/04/13 10:08:14;;;;;;;4.30;2.33;;;;;;;;;;5558467;25;20036;-59
2024/04/13 10:10:45;;;;;;;4.75;2.45;;;;;;;;;;5564557;25;20025;-59
2024/04/13 10:13:14;;;;;;;8.50;2.65;;;;;;;;;;5543807;25;20041;-60
2024/04/13 10:15:44;;;;;;;5.20;2.40;;;;;;;;;;5559869;25;20514;-59
2024/04/13 10:18:11;;;;;;;5.60;2.33;;;;;;;;;;5543366;25;20036;-59
2024/04/13 10:20:40;;;;;;;4.63;2.50;;;;;;;;;;5567367;25;20376;-59
2024/04/13 10:23:10;;;;;;;4.30;2.20;;;;;;;;;;5544350;25;20386;-62
2024/04/13 10:25:39;;;;;;;4.60;2.30;;;;;;;;;;5564211;25;20024;-60
2024/04/13 10:28:05;;;;;;;;;;;;;;;;;;5573726;25;20028;-63
2024/04/13 10:30:43;;;;;;;6.00;2.30;;;;;;;;;;5562256;25;19930;-58
2024/04/13 10:33:16;;;;;;;4.70;2.13;;;;;;;;;;5546413;25;20032;-60
2024/04/13 10:35:52;;;;;;;4.97;2.08;;;;;;;;;;5582320;25;20033;-62
2024/04/13 10:38:21;;;;;;;6.00;2.38;;;;;;;;;;5546179;25;20028;-59
2024/04/13 10:40:50;;;;;;;;;;;;;;;;;;5562472;25;20017;-59
2024/04/13 10:43:16;;;;;;;4.93;2.35;;;;;;;;;;5546445;25;19951;-59
2024/04/13 10:45:45;;;;;;;6.70;2.42;;;;;;;;;;5571787;25;20028;-60
2024/04/13 10:48:11;;;;;;;;;;;;;;;;;;5557403;25;20024;-60
2024/04/13 10:50:39;;;;;;;6.53;2.38;;;;;;;;;;5599400;25;19929;-61
2024/04/13 10:53:10;;;;;;;4.88;2.30;;;;;;;;;;5583642;25;20032;-60
2024/04/13 10:55:42;;;;;;;5.45;2.30;;;;;;;;;;5598897;25;20033;-60
2024/04/13 10:58:08;;;;;;;5.32;2.25;;;;;;;;;;5578683;25;20032;-60
2024/04/13 11:00:37;;;;;;;4.03;2.00;;;;;;;;;;5561081;25;20032;-60
2024/04/13 11:03:04;;;;;;;6.88;2.28;;;;;;;;;;5562490;25;20028;-60
2024/04/13 11:05:32;;;;;;;3.35;1.85;;;;;;;;;;5585426;25;20040;-60
2024/04/13 11:07:59;;;;;;;5.35;2.45;;;;;;;;;;5565176;25;20020;-60
2024/04/13 11:10:28;;;;;;;5.57;2.78;;;;;;;;;;5580134;25;20036;-60
2024/04/13 11:12:56;;;;;;;5.43;2.30;;;;;;;;;;5587600;25;20020;-60
2024/04/13 11:15:25;;;;;;;4.18;2.75;;;;;;;;;;5581579;25;20032;-59
2024/04/13 11:17:51;;;;;;;4.63;2.05;;;;;;;;;;5551884;25;20029;-60
2024/04/13 11:20:20;;;;;;;4.57;2.30;;;;;;;;;;5574140;25;20032;-59
2024/04/13 11:22:46;;;;;;;4.55;1.95;;;;;;;;;;5570373;25;20025;-59
2024/04/13 11:25:17;;;;;;;11.32;2.63;;;;;;;;;;5575672;25;20028;-59
2024/04/13 11:27:43;;;;;;;4.63;2.13;;;;;;;;;;5571860;25;20032;-59
2024/04/13 11:30:15;;;;;;;3.97;2.10;;;;;;;;;;5564779;25;20373;-61
2024/04/13 11:32:41;;;;;;;3.25;1.80;;;;;;;;;;5556367;25;20050;-61
2024/04/13 11:35:15;;;;;;;3.15;1.83;;;;;;;;;;5575181;25;20106;-60
2024/04/13 11:37:42;;;;;;;4.63;2.35;;;;;;;;;;5579588;25;20025;-60
2024/04/13 11:40:13;;;;;;;5.45;2.17;;;;;;;;;;5572678;25;20466;-60
2024/04/13 11:42:39;;;;;;;4.30;2.28;;;;;;;;;;5561727;25;20369;-60
2024/04/13 11:45:08;;;;;;;4.63;2.50;;;;;;;;;;5579710;25;20502;-59
2024/04/13 11:47:37;;;;;;;4.05;2.25;;;;;;;;;;5551269;25;20033;-59
2024/04/13 11:50:07;;;;;;;4.75;2.92;;;;;;;;;;5564499;25;20369;-60
2024/04/13 11:52:33;;;;;;;3.38;2.13;;;;;;;;;;5548817;25;20033;-59
2024/04/13 11:55:03;;;;;;;9.00;2.42;;;;;;;;;;5567699;25;20029;-59
2024/04/13 11:57:29;;;;;;;3.58;2.33;;;;;;;;;;5558537;25;20029;-58
2024/04/13 11:59:58;;;;;;;3.00;1.83;;;;;;;;;;5601098;25;20510;-60
2024/04/13 12:02:23;;;;;;;;;;;;;;;;;;5583841;25;20032;-59
2024/04/13 12:04:55;;;;;;;4.22;2.10;;;;;;;;;;5590656;25;19946;-59
2024/04/13 12:07:21;;;;;;;5.90;2.47;;;;;;;;;;5589530;25;20032;-59
2024/04/13 12:09:49;;;;;;;4.53;2.45;;;;;;;;;;5598739;25;20024;-59
2024/04/13 12:12:16;;;;;;;5.47;2.55;;;;;;;;;;5577948;25;20029;-59
2024/04/13 12:14:46;;;;;;;4.38;2.65;;;;;;;;;;5578580;25;20490;-58
2024/04/13 12:17:13;;;;;;;5.35;2.40;;;;;;;;;;5554453;25;20386;-58
2024/04/13 12:19:41;;;;;;;5.32;2.40;;;;;;;;;;5557272;25;20020;-58
2024/04/13 12:22:07;;;;;;;;;;;;;;;;;;5564748;25;20032;-59
2024/04/13 12:24:39;;;;;;;4.45;2.15;;;;;;;;;;5568783;25;19930;-59
2024/04/13 12:27:05;;;;;;;5.00;2.70;;;;;;;;;;5573231;25;20498;-59
2024/04/13 12:29:34;;;;;;;4.32;2.08;;;;;;;;;;5586109;25;20450;-60
2024/04/13 12:32:00;;;;;;;3.58;2.22;;;;;;;;;;5574251;25;20020;-58
2024/04/13 12:34:29;;;;;;;4.50;2.30;;;;;;;;;;5601129;25;20020;-58
2024/04/13 12:36:55;;;;;;;;;;;;;;;;;;5602848;25;20398;-58
2024/04/13 12:39:24;;;;;;;4.45;2.17;;;;;;;;;;5590264;25;19923;-58
2024/04/13 12:41:52;;;;;;;4.43;2.17;;;;;;;;;;5564141;25;20020;-58
2024/04/13 12:44:21;;;;;;;4.20;1.98;;;;;;;;;;5567116;25;20045;-59
2024/04/13 12:46:47;;;;;;;;;;;;;;;;;;5596940;25;21695;-60
2024/04/13 12:49:16;;;;;;;4.57;2.35;;;;;;;;;;5616425;25;19929;-59
2024/04/13 12:51:42;;;;;;;4.75;2.25;;;;;;;;;;5615578;25;20032;-59
2024/04/13 12:54:10;;;;;;;4.43;2.30;;;;;;;;;;5639811;25;20023;-59
2024/04/13 12:56:36;;;;;;;;;;;;;;;;;;5640930;25;20022;-60
2024/04/13 12:59:07;;;;;;;4.22;2.25;;;;;;;;;;5591746;25;19929;-59
2024/04/13 13:01:33;;;;;;;3.38;1.85;;;;;;;;;;5601579;25;20032;-61
2024/04/13 13:04:02;;;;;;;4.70;1.98;;;;;;;;;;5581433;25;20386;-60
2024/04/13 13:06:28;;;;;;;;;;;;;;;;;;5564674;25;20025;-59
2024/04/13 13:08:57;;;;;;;3.38;1.98;;;;;;;;;;5579285;25;20295;-59
2024/04/13 13:11:23;;;;;;;4.00;2.00;;;;;;;;;;5563026;25;20486;-59
2024/04/13 13:13:51;;;;;;;6.47;2.38;;;;;;;;;;5567487;25;20025;-59
2024/04/13 13:16:17;;;;;;;;;;;;;;;;;;5575306;25;20032;-59
2024/04/13 13:18:48;;;;;;;4.15;1.70;;;;;;;;;;5586524;25;20287;-59
2024/04/13 13:21:15;;;;;;;5.07;2.00;;;;;;;;;;5596291;25;20040;-59
2024/04/13 13:23:44;;;;;;;4.93;2.15;;;;;;;;;;5575159;25;20039;-59
2024/04/13 13:26:10;;;;;;;4.90;1.90;;;;;;;;;;5576449;25;20028;-59
2024/04/13 13:28:38;;;;;;;4.47;2.13;;;;;;;;;;5564085;25;20024;-60
2024/04/13 13:31:04;;;;;;;;;;;;;;;;;;5579585;25;20029;-59
2024/04/13 13:33:33;;;;;;;3.83;1.80;;;;;;;;;;5577671;25;20379;-59
2024/04/13 13:35:59;;;;;;;;;;;;;;;;;;5564903;25;20024;-59
2024/04/13 13:38:31;;;;;;;3.05;1.77;;;;;;;;;;5563026;25;19951;-59
2024/04/13 13:40:57;;;;;;;2.97;1.88;;;;;;;;;;5563240;25;20024;-59
2024/04/13 13:43:26;;;;;;;4.15;1.73;;;;;;;;;;5570608;25;20037;-59
2024/04/13 13:45:52;;;;;;;7.35;1.42;;;;;;;;;;5572192;25;20383;-58
2024/04/13 13:48:21;;;;;;;3.88;1.70;;;;;;;;;;5598891;25;20036;-60
2024/04/13 13:50:47;;;;;;;3.45;1.83;;;;;;;;;;5583841;25;20028;-59
2024/04/13 13:53:16;;;;;;;2.08;1.30;;;;;;;;;;5561916;25;20021;-59
2024/04/13 13:55:41;;;;;;;;;;;;;;;;;;5564069;25;20029;-59
2024/04/13 13:58:13;;;;;;;3.72;1.40;;;;;;;;;;5562977;25;19930;-58
2024/04/13 14:00:39;;;;;;;4.15;1.83;;;;;;;;;;5568963;25;20118;-59
2024/04/13 14:03:07;;;;;;;3.95;1.70;;;;;;;;;;5579777;25;20033;-59
2024/04/13 14:05:33;;;;;;;;;;;;;;;;;;5588303;25;20373;-59
2024/04/13 14:08:02;;;;;;;4.20;1.50;;;;;;;;;;5577001;25;19923;-58
2024/04/13 14:10:28;;;;;;;;;;;;;;;;;;5563096;25;20020;-59
2024/04/13 14:12:57;;;;;;;3.60;1.73;;;;;;;;;;5562503;25;19950;-59
2024/04/13 14:15:26;;;;;;;3.53;1.42;;;;;;;;;;5571899;25;20031;-58
2024/04/13 14:17:54;;;;;;;;;;;;;;;;;;5577197;25;20033;-63
2024/04/13 14:20:21;;;;;;;2.83;1.50;;;;;;;;;;5563008;25;19955;-59
2024/04/13 14:22:49;;;;;;;4.35;1.50;;;;;;;;;;5561939;25;20041;-59
2024/04/13 14:25:16;;;;;;;3.45;1.52;;;;;;;;;;5569545;25;20028;-59
2024/04/13 14:27:45;;;;;;;3.13;1.85;;;;;;;;;;5562032;25;20033;-60
2024/04/13 14:30:11;;;;;;;2.80;1.60;;;;;;;;;;5571526;25;20032;-59
2024/04/13 14:32:43;;;;;;;4.85;1.52;;;;;;;;;;5577382;25;20024;-59
2024/04/13 14:35:09;;;;;;;2.90;1.42;;;;;;;;;;5560358;25;20036;-59
2024/04/13 14:37:37;;;;;;;3.58;1.23;;;;;;;;;;5583706;25;20037;-59
2024/04/13 14:40:04;;;;;;;2.92;1.50;;;;;;;;;;5599956;25;20036;-59
2024/04/13 14:42:34;;;;;;;3.42;1.40;;;;;;;;;;5573107;25;20029;-59
2024/04/13 14:45:01;;;;;;;2.58;1.35;;;;;;;;;;5551295;25;20029;-59
2024/04/13 14:47:29;;;;;;;3.40;1.60;;;;;;;;;;5564944;25;20406;-58
2024/04/13 14:49:58;;;;;;;2.95;1.45;;;;;;;;;;5549742;25;20458;-59
2024/04/13 14:52:27;;;;;;;2.70;1.33;;;;;;;;;;5564711;25;20147;-59